Time;durP1;ratioP1;P1;durP2;ratioP2;P2;SDS_P1;SDS_P2;PMS_P1;PMS_P2;Temp;Humidity;BMP_temperature;BMP_pressure;BME280_temperature;BME280_humidity;BME280_pressure;Samples;Min_cycle;Max_cycle;Signal;HPM_P1;HPM_P2
2021/01/06 00:00:48;;;;;;;1.73;0.30;;;3.00;99.90;;;;;;5090415;28;20246;-65
2021/01/06 00:03:16;;;;;;;3.53;1.77;;;3.00;99.90;;;;;;5086160;28;20207;-65
2021/01/06 00:05:43;;;;;;;3.45;0.57;;;3.10;99.90;;;;;;5079476;28;20253;-65
2021/01/06 00:08:09;;;;;;;2.50;0.90;;;3.10;99.90;;;;;;5102997;28;20180;-64
2021/01/06 00:10:34;;;;;;;1.70;0.40;;;3.10;99.90;;;;;;5091764;28;20706;-65
2021/01/06 00:13:00;;;;;;;1.70;0.20;;;3.10;99.90;;;;;;5099166;28;20223;-64
2021/01/06 00:15:29;;;;;;;2.00;0.63;;;3.10;99.90;;;;;;5092644;28;20272;-65
2021/01/06 00:17:54;;;;;;;1.80;0.47;;;3.10;99.90;;;;;;5087631;28;20241;-65
2021/01/06 00:20:22;;;;;;;1.70;0.20;;;3.20;99.90;;;;;;5091030;28;20709;-65
2021/01/06 00:22:47;;;;;;;1.70;0.20;;;3.10;99.90;;;;;;5087233;28;20179;-65
2021/01/06 00:25:19;;;;;;;2.33;1.37;;;3.20;99.90;;;;;;5086389;28;20555;-65
2021/01/06 00:27:45;;;;;;;1.73;0.30;;;3.20;99.90;;;;;;5089031;28;20184;-65
2021/01/06 00:30:27;;;;;;;1.70;0.30;;;3.10;99.90;;;;;;5091945;28;20182;-65
2021/01/06 00:32:53;;;;;;;3.15;2.85;;;3.10;99.90;;;;;;5085202;28;20187;-65
2021/01/06 00:35:20;;;;;;;1.70;0.20;;;3.10;99.90;;;;;;5090242;28;20208;-65
2021/01/06 00:37:46;;;;;;;4.50;0.93;;;3.10;99.90;;;;;;5097177;28;20171;-65
2021/01/06 00:40:13;;;;;;;2.00;0.45;;;3.10;99.90;;;;;;5081593;28;20188;-65
2021/01/06 00:42:39;;;;;;;2.00;0.68;;;3.10;99.90;;;;;;5073120;28;20187;-65
2021/01/06 00:45:08;;;;;;;1.73;0.20;;;3.10;99.90;;;;;;5090518;28;20210;-65
2021/01/06 00:47:34;;;;;;;1.77;0.32;;;3.10;99.90;;;;;;5087731;28;20192;-65
2021/01/06 00:49:59;;;;;;;1.70;0.20;;;3.00;99.90;;;;;;5094266;28;20180;-65
2021/01/06 00:52:25;;;;;;;1.70;0.20;;;3.10;99.90;;;;;;5091833;28;20434;-65
2021/01/06 00:54:50;;;;;;;1.90;0.33;;;3.10;99.90;;;;;;5093639;28;20505;-65
2021/01/06 00:57:17;;;;;;;1.80;0.50;;;3.10;99.90;;;;;;5096657;28;20168;-65
2021/01/06 00:59:42;;;;;;;2.10;1.20;;;3.10;99.90;;;;;;5090905;28;20191;-65
2021/01/06 01:02:08;;;;;;;2.00;0.40;;;3.10;99.90;;;;;;5091228;28;20630;-65
2021/01/06 01:04:33;;;;;;;2.57;0.80;;;3.20;99.90;;;;;;5093220;28;20215;-65
2021/01/06 01:06:59;;;;;;;4.50;2.83;;;3.20;99.90;;;;;;5085540;28;20658;-65
2021/01/06 01:09:25;;;;;;;1.80;0.40;;;3.20;99.90;;;;;;5089640;28;20187;-65
2021/01/06 01:11:50;;;;;;;1.90;0.40;;;3.10;99.90;;;;;;5090475;28;20211;-65
2021/01/06 01:14:16;;;;;;;1.70;0.20;;;3.20;99.90;;;;;;5088745;28;20207;-65
2021/01/06 01:16:42;;;;;;;1.70;0.20;;;3.20;99.90;;;;;;5092289;28;20241;-65
2021/01/06 01:19:12;;;;;;;1.70;0.20;;;3.20;99.90;;;;;;5091033;28;20642;-66
2021/01/06 01:21:38;;;;;;;1.70;0.20;;;3.10;99.90;;;;;;5091391;28;20179;-65
2021/01/06 01:24:05;;;;;;;1.70;0.27;;;3.10;99.90;;;;;;5094813;28;20278;-65
2021/01/06 01:26:31;;;;;;;2.00;0.35;;;3.10;99.90;;;;;;5088393;28;20238;-65
2021/01/06 01:28:56;;;;;;;1.80;0.30;;;3.10;99.90;;;;;;5086996;28;20183;-65
2021/01/06 01:31:31;;;;;;;1.90;0.40;;;3.10;99.90;;;;;;5088422;28;20237;-65
2021/01/06 01:33:56;;;;;;;2.10;0.82;;;3.10;99.90;;;;;;5090706;28;20222;-66
2021/01/06 01:36:22;;;;;;;1.70;0.30;;;3.10;99.90;;;;;;5074697;28;20278;-65
2021/01/06 01:38:47;;;;;;;1.90;0.50;;;3.10;99.90;;;;;;5094066;28;20593;-65
2021/01/06 01:41:13;;;;;;;2.43;0.37;;;3.10;99.90;;;;;;5085519;28;20241;-66
2021/01/06 01:43:39;;;;;;;1.80;0.50;;;3.00;99.90;;;;;;5088718;28;20239;-66
2021/01/06 01:46:07;;;;;;;2.03;0.40;;;3.00;99.90;;;;;;5090311;28;20184;-66
2021/01/06 01:48:38;;;;;;;1.70;0.20;;;3.00;99.90;;;;;;5088475;28;20192;-66
2021/01/06 01:51:27;;;;;;;1.70;0.20;;;3.00;99.90;;;;;;5091271;28;20191;-65
2021/01/06 01:54:02;;;;;;;1.70;0.20;;;3.00;99.90;;;;;;5092868;28;20215;-65
2021/01/06 01:56:39;;;;;;;2.00;0.80;;;3.00;99.90;;;;;;5091559;28;20203;-65
2021/01/06 01:59:10;;;;;;;2.00;0.40;;;3.00;99.90;;;;;;5089525;28;20178;-66
2021/01/06 02:01:36;;;;;;;1.70;0.20;;;3.00;99.90;;;;;;5092896;28;20266;-66
2021/01/06 02:04:10;;;;;;;1.90;0.50;;;3.00;99.90;;;;;;5090702;28;20243;-66
2021/01/06 02:06:47;;;;;;;1.70;0.20;;;3.00;99.90;;;;;;5088338;28;20180;-65
2021/01/06 02:09:21;;;;;;;2.00;0.90;;;3.10;99.90;;;;;;5093904;28;20188;-65
2021/01/06 02:11:55;;;;;;;2.08;0.68;;;3.10;99.90;;;;;;5089332;28;20191;-65
2021/01/06 02:14:28;;;;;;;1.70;0.20;;;3.00;99.90;;;;;;5088647;28;20199;-66
2021/01/06 02:17:04;;;;;;;1.90;0.68;;;3.00;99.90;;;;;;5090168;28;20271;-66
2021/01/06 02:19:48;;;;;;;1.80;0.50;;;3.10;99.90;;;;;;5092455;28;20538;-66
2021/01/06 02:22:17;;;;;;;1.80;0.30;;;3.10;99.90;;;;;;5084285;28;20677;-65
2021/01/06 02:24:44;;;;;;;1.77;0.38;;;3.10;99.90;;;;;;5090555;28;20211;-65
2021/01/06 02:27:11;;;;;;;1.80;0.30;;;3.10;99.90;;;;;;5089871;28;20184;-66
2021/01/06 02:29:37;;;;;;;1.70;0.20;;;3.10;99.90;;;;;;5087675;28;20633;-65
2021/01/06 02:32:04;;;;;;;4.85;2.70;;;3.10;99.90;;;;;;5090148;28;20188;-65
2021/01/06 02:34:30;;;;;;;1.83;0.45;;;3.10;99.90;;;;;;5090529;28;20199;-65
2021/01/06 02:36:57;;;;;;;3.00;1.20;;;3.20;99.90;;;;;;5089137;28;20176;-65
2021/01/06 02:39:22;;;;;;;1.73;0.20;;;3.10;99.90;;;;;;5092138;28;20470;-65
2021/01/06 02:41:48;;;;;;;2.10;0.53;;;3.20;99.90;;;;;;5089614;28;20265;-65
2021/01/06 02:44:15;;;;;;;3.22;1.83;;;3.10;99.90;;;;;;5090357;28;20211;-65
2021/01/06 02:46:41;;;;;;;1.70;0.20;;;3.20;99.90;;;;;;5091552;28;20187;-65
2021/01/06 02:49:08;;;;;;;1.70;0.20;;;3.20;99.90;;;;;;5082875;28;20192;-66
2021/01/06 02:51:45;;;;;;;2.13;0.80;;;3.20;99.90;;;;;;5088801;28;20184;-65
2021/01/06 02:54:16;;;;;;;1.70;0.20;;;3.20;99.90;;;;;;5092703;28;20199;-65
2021/01/06 02:56:43;;;;;;;1.70;0.20;;;3.20;99.90;;;;;;5088474;28;20180;-65
2021/01/06 02:59:12;;;;;;;2.92;1.13;;;3.20;99.90;;;;;;5084541;28;20534;-66
2021/01/06 03:01:40;;;;;;;2.72;0.90;;;3.20;99.90;;;;;;5096369;28;20180;-65
2021/01/06 03:04:09;;;;;;;6.47;1.88;;;3.20;99.90;;;;;;5090124;28;20203;-65
2021/01/06 03:06:51;;;;;;;1.70;0.20;;;3.10;99.90;;;;;;5089595;28;20184;-66
2021/01/06 03:09:29;;;;;;;2.70;1.02;;;3.10;99.90;;;;;;5088905;28;20650;-65
2021/01/06 03:11:56;;;;;;;1.70;0.20;;;3.00;99.90;;;;;;5089580;28;20203;-66
2021/01/06 03:14:23;;;;;;;4.57;2.55;;;3.00;99.90;;;;;;5090478;28;20561;-65
2021/01/06 03:16:49;;;;;;;1.70;0.20;;;3.10;99.90;;;;;;5090020;28;20186;-65
2021/01/06 03:19:15;;;;;;;3.17;0.80;;;3.20;99.90;;;;;;5089068;28;20699;-64
2021/01/06 03:21:44;;;;;;;1.70;0.20;;;3.20;99.90;;;;;;5088503;28;20441;-65
2021/01/06 03:24:11;;;;;;;1.70;0.20;;;3.20;99.90;;;;;;5088744;28;20207;-65
2021/01/06 03:26:39;;;;;;;1.70;0.30;;;3.20;99.90;;;;;;5089179;28;20584;-65
2021/01/06 03:29:05;;;;;;;1.70;0.20;;;3.10;99.90;;;;;;5086343;28;20673;-65
2021/01/06 03:31:44;;;;;;;1.70;0.20;;;3.10;99.90;;;;;;5091061;28;20221;-65
2021/01/06 03:34:24;;;;;;;2.97;0.93;;;3.10;99.90;;;;;;5083172;28;20245;-65
2021/01/06 03:37:17;;;;;;;2.38;0.95;;;3.00;99.90;;;;;;5088106;28;20184;-65
2021/01/06 03:40:08;;;;;;;2.65;0.75;;;3.00;99.90;;;;;;5086979;28;20276;-65
2021/01/06 03:42:35;;;;;;;1.70;0.20;;;3.00;99.90;;;;;;5089598;28;20202;-65
2021/01/06 03:45:02;;;;;;;2.13;0.85;;;3.00;99.90;;;;;;5087076;28;20260;-65
2021/01/06 03:47:32;;;;;;;1.80;0.30;;;3.00;99.90;;;;;;5089418;28;20195;-65
2021/01/06 03:50:24;;;;;;;1.70;0.20;;;3.00;99.90;;;;;;5088655;28;20219;-65
2021/01/06 03:52:58;;;;;;;1.70;0.20;;;3.00;99.90;;;;;;5071716;28;20257;-65
2021/01/06 03:55:49;;;;;;;1.70;0.20;;;3.10;99.90;;;;;;5088208;28;20180;-65
2021/01/06 03:58:44;;;;;;;1.70;0.20;;;3.10;99.90;;;;;;5091615;28;20183;-65
2021/01/06 04:01:33;;;;;;;1.70;0.20;;;3.10;99.90;;;;;;5089792;28;20175;-65
2021/01/06 04:04:21;;;;;;;2.85;1.40;;;3.10;99.90;;;;;;5085405;28;20208;-65
2021/01/06 04:06:50;;;;;;;1.70;0.20;;;3.10;99.90;;;;;;5085148;28;20205;-65
2021/01/06 04:09:24;;;;;;;1.70;0.20;;;3.10;99.90;;;;;;5085150;28;20284;-65
2021/01/06 04:12:06;;;;;;;1.70;0.20;;;3.10;99.90;;;;;;5087292;28;20215;-65
2021/01/06 04:14:32;;;;;;;1.70;0.20;;;3.10;99.90;;;;;;5082081;28;20207;-65
2021/01/06 04:17:12;;;;;;;2.07;0.70;;;3.20;99.90;;;;;;5092948;28;20184;-65
2021/01/06 04:19:38;;;;;;;1.70;0.20;;;3.20;99.90;;;;;;5086513;28;20183;-66
2021/01/06 04:22:03;;;;;;;1.70;0.30;;;3.20;99.90;;;;;;5087341;28;20176;-65
2021/01/06 04:24:29;;;;;;;1.70;0.20;;;3.20;99.90;;;;;;5090346;28;20999;-65
2021/01/06 04:26:54;;;;;;;4.43;2.30;;;3.20;99.90;;;;;;5093424;28;20188;-66
2021/01/06 04:29:20;;;;;;;2.73;1.13;;;3.20;99.90;;;;;;5094472;28;20707;-65
2021/01/06 04:31:45;;;;;;;1.70;0.20;;;3.20;99.90;;;;;;5089042;28;20329;-66
2021/01/06 04:34:11;;;;;;;1.70;0.30;;;3.20;99.90;;;;;;5091401;28;20215;-65
2021/01/06 04:36:36;;;;;;;1.80;0.30;;;3.20;99.90;;;;;;5092041;28;20182;-65
2021/01/06 04:39:05;;;;;;;1.77;0.30;;;3.20;99.90;;;;;;5090991;28;20282;-66
2021/01/06 04:41:37;;;;;;;1.80;0.20;;;3.20;99.90;;;;;;5088267;28;20222;-66
2021/01/06 04:44:34;;;;;;;3.05;0.55;;;3.20;99.90;;;;;;5091785;28;20290;-65
2021/01/06 04:47:29;;;;;;;3.65;1.55;;;3.20;99.90;;;;;;5094713;28;20233;-65
2021/01/06 04:50:03;;;;;;;3.42;1.85;;;3.20;99.90;;;;;;5084053;28;20192;-65
2021/01/06 04:52:53;;;;;;;6.03;2.90;;;3.20;99.90;;;;;;5090721;28;20199;-65
2021/01/06 04:55:30;;;;;;;1.73;0.30;;;3.20;99.90;;;;;;5093286;28;20208;-65
2021/01/06 04:58:20;;;;;;;2.05;0.57;;;3.20;99.90;;;;;;5089528;28;20195;-65
2021/01/06 05:01:07;;;;;;;1.70;0.20;;;3.20;99.90;;;;;;5086833;28;20258;-65
2021/01/06 05:04:16;;;;;;;2.10;0.50;;;3.20;99.90;;;;;;5090900;28;20818;-66
2021/01/06 05:06:51;;;;;;;1.80;0.40;;;3.20;99.90;;;;;;5055583;28;20218;-66
2021/01/06 05:09:23;;;;;;;4.57;2.50;;;3.20;99.90;;;;;;5089773;28;20742;-66
2021/01/06 05:12:12;;;;;;;1.70;0.20;;;3.20;99.90;;;;;;5086081;28;20588;-65
2021/01/06 05:15:20;;;;;;;1.70;0.20;;;3.20;99.90;;;;;;5087249;28;20203;-65
2021/01/06 05:17:46;;;;;;;2.85;0.85;;;3.20;99.90;;;;;;5063777;28;20192;-65
2021/01/06 05:20:11;;;;;;;1.70;0.20;;;3.10;99.90;;;;;;5087996;28;20681;-65
2021/01/06 05:22:37;;;;;;;2.30;1.03;;;3.10;99.90;;;;;;5071188;28;20188;-66
2021/01/06 05:25:04;;;;;;;1.77;0.40;;;3.10;99.90;;;;;;5095211;28;20203;-65
2021/01/06 05:27:39;;;;;;;1.70;0.20;;;3.10;99.90;;;;;;5089852;28;20191;-65
2021/01/06 05:30:19;;;;;;;1.95;0.77;;;3.10;99.90;;;;;;5092061;28;20208;-66
2021/01/06 05:32:45;;;;;;;3.55;1.23;;;3.10;99.90;;;;;;5092560;28;20723;-65
2021/01/06 05:35:16;;;;;;;1.70;0.20;;;3.10;99.90;;;;;;5086927;28;20211;-65
2021/01/06 05:37:51;;;;;;;1.70;0.20;;;3.10;99.90;;;;;;5087488;28;20437;-65
2021/01/06 05:40:16;;;;;;;2.15;0.60;;;3.20;99.90;;;;;;5090637;28;20183;-66
2021/01/06 05:42:49;;;;;;;1.70;0.20;;;3.20;99.90;;;;;;5092859;28;20192;-65
2021/01/06 05:45:18;;;;;;;1.80;0.30;;;3.20;99.90;;;;;;5094506;28;20204;-66
2021/01/06 05:48:04;;;;;;;2.10;0.80;;;3.20;99.90;;;;;;5108673;28;20530;-66
2021/01/06 05:50:34;;;;;;;1.70;0.20;;;3.10;99.90;;;;;;5105632;28;20180;-65
2021/01/06 05:53:27;;;;;;;1.90;0.68;;;3.20;99.90;;;;;;5105815;28;20180;-66
2021/01/06 05:55:53;;;;;;;1.70;0.20;;;3.20;99.90;;;;;;5094572;28;20238;-66
2021/01/06 05:58:30;;;;;;;1.70;0.20;;;3.20;99.90;;;;;;5092978;28;20184;-65
2021/01/06 06:01:02;;;;;;;2.97;1.05;;;3.30;99.90;;;;;;5087477;28;20190;-65
2021/01/06 06:03:58;;;;;;;1.70;0.20;;;3.20;99.90;;;;;;5090072;28;20594;-66
2021/01/06 06:06:57;;;;;;;4.60;1.00;;;3.30;99.90;;;;;;5094066;28;20204;-66
2021/01/06 06:09:48;;;;;;;1.90;0.65;;;3.30;99.90;;;;;;5088159;28;20278;-65
2021/01/06 06:12:37;;;;;;;1.70;0.20;;;3.20;99.90;;;;;;5087434;28;20199;-65
2021/01/06 06:15:10;;;;;;;1.70;0.20;;;3.20;99.90;;;;;;5089278;28;20555;-66
2021/01/06 06:17:42;;;;;;;2.35;0.88;;;3.20;99.90;;;;;;5095396;28;20179;-65
2021/01/06 06:20:38;;;;;;;1.70;0.20;;;3.20;99.90;;;;;;5084729;28;20318;-65
2021/01/06 06:23:27;;;;;;;2.60;0.82;;;3.30;99.90;;;;;;5090118;28;20180;-66
2021/01/06 06:26:33;;;;;;;1.70;0.20;;;3.30;99.90;;;;;;5091518;28;20516;-66
2021/01/06 06:29:21;;;;;;;2.78;1.02;;;3.40;99.90;;;;;;5091957;28;20176;-65
2021/01/06 06:31:54;;;;;;;1.90;0.50;;;3.40;99.90;;;;;;5091693;28;20655;-65
2021/01/06 06:34:32;;;;;;;1.73;0.20;;;3.40;99.90;;;;;;5091152;28;20282;-65
2021/01/06 06:37:16;;;;;;;1.70;0.20;;;3.40;99.90;;;;;;5091906;28;20199;-65
2021/01/06 06:40:09;;;;;;;1.77;0.20;;;3.50;99.90;;;;;;5092401;28;20198;-65
2021/01/06 06:42:56;;;;;;;1.70;0.20;;;3.50;99.90;;;;;;5083406;28;20287;-65
2021/01/06 06:45:50;;;;;;;2.40;0.90;;;3.50;99.90;;;;;;5088731;28;20228;-66
2021/01/06 06:48:41;;;;;;;1.80;0.30;;;3.50;99.90;;;;;;5089614;28;20176;-65
2021/01/06 06:51:33;;;;;;;1.70;0.20;;;3.50;99.90;;;;;;5086558;28;20192;-65
2021/01/06 06:54:29;;;;;;;2.38;2.05;;;3.50;99.90;;;;;;5082665;28;20228;-65
2021/01/06 06:56:59;;;;;;;1.80;0.57;;;3.40;99.90;;;;;;5091315;28;20178;-64
2021/01/06 06:59:57;;;;;;;1.70;0.30;;;3.40;99.90;;;;;;5092412;28;20212;-64
2021/01/06 07:02:23;;;;;;;2.00;0.50;;;3.30;99.90;;;;;;5077889;28;20187;-64
2021/01/06 07:04:54;;;;;;;1.75;0.20;;;3.30;99.90;;;;;;5087632;28;20208;-64
2021/01/06 07:07:32;;;;;;;17.70;16.33;;;3.40;99.90;;;;;;5089638;28;20196;-64
2021/01/06 07:09:59;;;;;;;1.70;0.20;;;3.40;99.90;;;;;;5084209;28;20218;-64
2021/01/06 07:12:25;;;;;;;1.70;0.20;;;3.50;99.90;;;;;;5086066;28;20647;-65
2021/01/06 07:14:59;;;;;;;1.70;0.20;;;3.50;99.90;;;;;;5088378;28;20243;-64
2021/01/06 07:17:32;;;;;;;1.77;0.30;;;3.60;99.90;;;;;;5084057;28;20241;-63
2021/01/06 07:20:09;;;;;;;1.90;0.80;;;3.60;99.90;;;;;;5086234;28;20263;-65
2021/01/06 07:22:37;;;;;;;1.70;0.20;;;3.60;99.90;;;;;;5081200;28;20196;-65
2021/01/06 07:25:06;;;;;;;1.70;0.20;;;3.60;99.90;;;;;;5085464;28;20203;-65
2021/01/06 07:27:34;;;;;;;1.70;0.20;;;3.60;99.90;;;;;;5086194;28;20184;-64
2021/01/06 07:30:00;;;;;;;1.80;0.30;;;3.60;99.90;;;;;;5086715;28;20252;-64
2021/01/06 07:32:37;;;;;;;1.70;0.20;;;3.50;99.90;;;;;;5089950;28;20187;-64
2021/01/06 07:35:11;;;;;;;1.70;0.20;;;3.50;99.90;;;;;;5086120;28;20200;-66
2021/01/06 07:37:53;;;;;;;1.70;0.20;;;3.50;99.90;;;;;;5089424;28;20187;-65
2021/01/06 07:40:23;;;;;;;1.80;0.52;;;3.50;99.90;;;;;;5084729;28;20271;-64
2021/01/06 07:43:20;;;;;;;2.13;0.63;;;3.40;99.90;;;;;;5087471;28;20229;-65
2021/01/06 07:45:59;;;;;;;1.90;0.63;;;3.40;99.90;;;;;;5085374;28;20631;-64
2021/01/06 07:48:41;;;;;;;1.70;0.20;;;3.40;99.90;;;;;;5085071;28;20184;-65
2021/01/06 07:51:47;;;;;;;1.77;0.30;;;3.40;99.90;;;;;;5092996;28;20646;-65
2021/01/06 07:54:22;;;;;;;1.73;0.30;;;3.40;99.90;;;;;;5050539;28;20298;-65
2021/01/06 07:57:06;;;;;;;1.92;0.55;;;3.40;99.90;;;;;;5090912;28;20198;-64
2021/01/06 07:59:46;;;;;;;1.70;0.20;;;3.40;99.90;;;;;;5087144;28;20180;-65
2021/01/06 08:02:46;;;;;;;1.70;0.20;;;3.40;99.90;;;;;;5084431;28;20317;-66
2021/01/06 08:05:30;;;;;;;1.70;0.20;;;3.50;99.90;;;;;;5088167;28;20192;-64
2021/01/06 08:08:16;;;;;;;1.70;0.20;;;3.50;99.90;;;;;;5087951;28;20221;-65
2021/01/06 08:10:44;;;;;;;1.70;0.20;;;3.50;99.90;;;;;;5084037;28;20207;-65
2021/01/06 08:13:29;;;;;;;1.70;0.20;;;3.60;99.90;;;;;;5083819;28;20543;-65
2021/01/06 08:16:13;;;;;;;1.75;0.30;;;3.60;99.90;;;;;;5069340;28;20196;-64
2021/01/06 08:18:54;;;;;;;1.70;0.20;;;3.60;99.90;;;;;;5092248;28;20184;-65
2021/01/06 08:21:28;;;;;;;1.70;0.20;;;3.50;99.90;;;;;;5089361;28;20573;-65
2021/01/06 08:24:22;;;;;;;1.70;0.20;;;3.60;99.90;;;;;;5083417;28;20215;-65
2021/01/06 08:26:51;;;;;;;1.70;0.20;;;3.60;99.90;;;;;;5082204;28;20646;-64
2021/01/06 08:29:33;;;;;;;1.70;0.20;;;3.60;99.90;;;;;;5088092;28;20200;-65
2021/01/06 08:32:12;;;;;;;1.73;0.20;;;3.70;99.90;;;;;;5088958;28;20218;-65
2021/01/06 08:34:54;;;;;;;1.70;0.20;;;3.70;99.90;;;;;;5089028;28;20691;-65
2021/01/06 08:37:29;;;;;;;1.73;0.20;;;3.70;99.90;;;;;;5087668;28;20185;-64
2021/01/06 08:39:56;;;;;;;4.68;0.55;;;3.70;99.90;;;;;;5085612;28;20531;-65
2021/01/06 08:42:39;;;;;;;1.80;0.40;;;3.70;99.90;;;;;;5087486;28;20207;-64
2021/01/06 08:45:06;;;;;;;1.70;0.20;;;3.70;99.90;;;;;;5083205;28;20616;-63
2021/01/06 08:47:37;;;;;;;2.35;0.93;;;3.70;99.90;;;;;;5083702;28;20185;-63
2021/01/06 08:50:15;;;;;;;1.70;0.20;;;3.80;99.90;;;;;;5085144;28;20193;-64
2021/01/06 08:52:42;;;;;;;1.70;0.20;;;3.90;99.90;;;;;;5088145;28;20648;-64
2021/01/06 08:55:30;;;;;;;1.70;0.20;;;3.90;99.90;;;;;;5085837;28;20370;-65
2021/01/06 08:57:57;;;;;;;1.70;0.20;;;3.90;99.90;;;;;;5083087;28;20267;-65
2021/01/06 09:00:26;;;;;;;1.70;0.20;;;3.90;99.90;;;;;;5072799;28;20188;-65
2021/01/06 09:03:16;;;;;;;1.70;0.20;;;4.00;99.90;;;;;;5084417;28;20187;-65
2021/01/06 09:06:12;;;;;;;1.70;0.20;;;4.00;99.90;;;;;;5083359;28;20203;-64
2021/01/06 09:08:38;;;;;;;1.70;0.20;;;4.10;99.90;;;;;;5084233;28;20195;-64
2021/01/06 09:11:22;;;;;;;2.37;0.53;;;4.10;99.90;;;;;;5086674;28;20168;-66
2021/01/06 09:14:07;;;;;;;4.60;3.00;;;4.10;99.90;;;;;;5084476;28;20205;-63
2021/01/06 09:16:48;;;;;;;1.70;0.20;;;4.10;99.90;;;;;;5085350;28;20563;-64
2021/01/06 09:19:35;;;;;;;1.80;0.40;;;4.10;99.90;;;;;;5089902;28;20208;-64
2021/01/06 09:22:01;;;;;;;1.73;0.20;;;4.00;99.90;;;;;;5091565;28;20172;-64
2021/01/06 09:24:34;;;;;;;1.70;0.20;;;4.00;99.90;;;;;;5087513;28;20253;-64
2021/01/06 09:27:28;;;;;;;2.10;0.55;;;4.00;99.90;;;;;;5092091;28;20184;-63
2021/01/06 09:29:55;;;;;;;2.20;0.90;;;4.00;99.90;;;;;;5092074;28;20191;-63
2021/01/06 09:32:30;;;;;;;2.65;1.27;;;4.00;99.90;;;;;;5086238;28;20226;-64
2021/01/06 09:35:03;;;;;;;1.70;0.20;;;3.90;99.90;;;;;;5089382;28;20208;-63
2021/01/06 09:37:30;;;;;;;1.70;0.30;;;4.00;99.90;;;;;;5092450;28;20628;-64
2021/01/06 09:40:19;;;;;;;1.70;0.20;;;4.10;99.90;;;;;;5089812;28;20180;-64
2021/01/06 09:42:48;;;;;;;2.65;1.95;;;4.00;99.90;;;;;;5083783;28;20195;-64
2021/01/06 09:45:23;;;;;;;1.80;0.50;;;4.10;99.90;;;;;;5087953;28;21264;-65
2021/01/06 09:47:51;;;;;;;2.45;2.25;;;4.10;99.90;;;;;;5093429;28;20662;-65
2021/01/06 09:50:21;;;;;;;2.83;0.80;;;4.10;99.90;;;;;;5088933;28;20190;-64
2021/01/06 09:52:49;;;;;;;1.73;0.20;;;4.10;99.90;;;;;;5070060;28;20190;-63
2021/01/06 09:55:19;;;;;;;1.80;0.30;;;4.20;99.90;;;;;;5090302;28;20231;-65
2021/01/06 09:58:19;;;;;;;1.80;0.45;;;4.20;99.90;;;;;;5071677;28;20176;-65
2021/01/06 10:01:04;;;;;;;1.70;0.30;;;4.20;99.90;;;;;;5085513;28;20180;-65
2021/01/06 10:03:37;;;;;;;1.80;0.20;;;4.20;99.90;;;;;;5082447;28;20223;-65
2021/01/06 10:06:29;;;;;;;2.10;0.95;;;4.20;99.90;;;;;;5088107;28;20192;-64
2021/01/06 10:09:23;;;;;;;1.70;0.20;;;4.20;99.90;;;;;;5087062;28;20183;-65
2021/01/06 10:12:16;;;;;;;6.40;0.43;;;4.10;99.90;;;;;;5091369;28;20184;-65
2021/01/06 10:14:52;;;;;;;2.00;0.75;;;4.10;99.90;;;;;;5093249;28;20373;-65
2021/01/06 10:17:35;;;;;;;4.63;1.30;;;4.10;99.90;;;;;;5087693;28;20306;-65
2021/01/06 10:20:38;;;;;;;1.73;0.20;;;4.10;99.90;;;;;;5090383;28;20634;-65
2021/01/06 10:23:21;;;;;;;1.70;0.20;;;4.10;99.90;;;;;;5090657;28;20173;-65
2021/01/06 10:25:54;;;;;;;1.70;0.20;;;4.20;99.90;;;;;;5092288;28;20194;-64
2021/01/06 10:28:19;;;;;;;1.70;0.20;;;4.20;99.90;;;;;;5090194;28;20550;-64
2021/01/06 10:31:08;;;;;;;1.77;0.30;;;4.30;99.90;;;;;;5089742;28;20192;-64
2021/01/06 10:33:36;;;;;;;1.80;0.40;;;4.30;99.90;;;;;;5088023;28;20215;-64
2021/01/06 10:36:38;;;;;;;1.73;0.20;;;4.30;99.90;;;;;;5086698;28;20184;-63
2021/01/06 10:39:03;;;;;;;1.70;0.20;;;4.30;99.90;;;;;;5065117;28;20275;-63
2021/01/06 10:41:32;;;;;;;1.70;0.20;;;4.40;99.90;;;;;;5096478;28;20215;-64
2021/01/06 10:44:02;;;;;;;2.22;0.63;;;4.30;99.90;;;;;;5094580;28;20252;-63
2021/01/06 10:46:43;;;;;;;1.73;0.20;;;4.30;99.90;;;;;;5088695;28;20272;-64
2021/01/06 10:49:18;;;;;;;1.70;0.20;;;4.30;99.90;;;;;;5094214;28;20277;-64
2021/01/06 10:51:49;;;;;;;1.70;0.20;;;4.30;99.90;;;;;;5096944;28;20194;-64
2021/01/06 10:54:29;;;;;;;1.70;0.20;;;4.40;99.90;;;;;;5091332;28;20203;-64
2021/01/06 10:56:56;;;;;;;1.73;0.30;;;4.40;99.90;;;;;;5091942;28;20172;-64
2021/01/06 10:59:21;;;;;;;1.73;0.30;;;4.50;99.90;;;;;;5090763;28;20639;-64
2021/01/06 11:02:17;;;;;;;1.70;0.30;;;4.50;99.90;;;;;;5089585;28;20194;-63
2021/01/06 11:04:50;;;;;;;1.70;0.20;;;4.50;99.90;;;;;;5081120;28;20230;-63
2021/01/06 11:07:29;;;;;;;1.70;0.20;;;4.40;99.90;;;;;;5088996;28;20211;-64
2021/01/06 11:10:04;;;;;;;1.70;0.20;;;4.40;99.90;;;;;;5082877;28;20924;-64
2021/01/06 11:12:51;;;;;;;1.73;0.20;;;4.40;99.90;;;;;;5088868;28;20663;-64
2021/01/06 11:15:44;;;;;;;1.70;0.20;;;4.50;99.90;;;;;;5086721;28;20204;-64
2021/01/06 11:18:18;;;;;;;1.73;0.20;;;4.50;99.90;;;;;;5092757;28;20226;-63
2021/01/06 11:20:49;;;;;;;1.80;0.30;;;4.50;99.90;;;;;;5088859;28;20183;-64
2021/01/06 11:23:28;;;;;;;1.70;0.20;;;4.50;99.90;;;;;;5093839;28;20631;-65
2021/01/06 11:25:59;;;;;;;1.77;0.30;;;4.50;99.90;;;;;;5094208;28;20190;-64
2021/01/06 11:28:55;;;;;;;2.10;0.60;;;4.50;99.90;;;;;;5100995;28;20184;-65
2021/01/06 11:31:34;;;;;;;1.70;0.20;;;4.50;99.90;;;;;;5087580;28;20530;-64
2021/01/06 11:34:11;;;;;;;1.70;0.20;;;4.50;99.90;;;;;;5103809;28;20226;-65
2021/01/06 11:36:46;;;;;;;1.70;0.20;;;4.60;99.90;;;;;;5095344;28;20192;-64
2021/01/06 11:39:36;;;;;;;1.70;0.20;;;4.60;99.90;;;;;;5090236;28;20190;-64
2021/01/06 11:42:20;;;;;;;1.70;0.20;;;4.50;99.90;;;;;;5087633;28;20184;-64
2021/01/06 11:45:10;;;;;;;1.98;0.63;;;4.60;99.90;;;;;;5089161;28;20200;-65
2021/01/06 11:47:55;;;;;;;1.70;0.20;;;4.60;99.90;;;;;;5095998;28;20239;-64
2021/01/06 11:50:36;;;;;;;1.70;0.20;;;4.60;99.90;;;;;;5085185;28;20183;-65
2021/01/06 11:53:26;;;;;;;3.75;1.75;;;4.70;99.90;;;;;;5088752;28;20662;-64
2021/01/06 11:56:15;;;;;;;1.70;0.20;;;4.70;99.90;;;;;;5079275;28;20282;-65
2021/01/06 11:59:16;;;;;;;1.70;0.20;;;4.70;99.90;;;;;;5083302;28;20252;-64
2021/01/06 12:02:24;;;;;;;3.38;0.68;;;4.70;99.90;;;;;;5085824;28;20176;-65
2021/01/06 12:05:10;;;;;;;2.25;0.85;;;4.70;99.90;;;;;;5080587;28;20227;-65
2021/01/06 12:08:09;;;;;;;1.80;0.20;;;4.60;99.90;;;;;;5090448;28;20205;-64
2021/01/06 12:10:48;;;;;;;1.70;0.20;;;4.70;99.90;;;;;;5076133;28;20546;-63
2021/01/06 12:13:37;;;;;;;1.70;0.20;;;4.70;99.90;;;;;;5084356;28;20194;-64
2021/01/06 12:16:11;;;;;;;1.70;0.20;;;4.70;99.90;;;;;;5090115;28;20176;-63
2021/01/06 12:19:01;;;;;;;1.73;0.20;;;4.70;99.90;;;;;;5086468;28;20655;-64
2021/01/06 12:21:36;;;;;;;1.70;0.20;;;4.80;99.90;;;;;;5085422;28;20199;-63
2021/01/06 12:24:28;;;;;;;1.70;0.20;;;4.80;99.90;;;;;;5085937;28;20213;-63
2021/01/06 12:27:08;;;;;;;1.70;0.20;;;4.80;99.90;;;;;;5097398;28;20207;-63
2021/01/06 12:29:46;;;;;;;2.55;0.55;;;4.70;99.90;;;;;;5082428;28;20674;-64
2021/01/06 12:32:24;;;;;;;2.42;0.85;;;4.70;99.90;;;;;;5084284;28;20183;-63
2021/01/06 12:34:53;;;;;;;2.00;0.63;;;4.70;99.90;;;;;;5096493;28;20271;-64
2021/01/06 12:37:29;;;;;;;1.80;0.20;;;4.60;99.90;;;;;;5085509;28;20233;-64
2021/01/06 12:39:57;;;;;;;1.90;0.75;;;4.70;99.90;;;;;;5089663;28;20193;-63
2021/01/06 12:42:32;;;;;;;1.70;0.20;;;4.70;99.90;;;;;;5100107;28;20190;-63
2021/01/06 12:45:13;;;;;;;4.50;0.98;;;4.80;99.90;;;;;;5087857;28;20199;-64
2021/01/06 12:48:09;;;;;;;2.75;0.60;;;4.80;99.90;;;;;;5090897;28;20195;-63
2021/01/06 12:51:01;;;;;;;1.80;0.30;;;4.80;99.90;;;;;;5090903;28;20176;-64
2021/01/06 12:53:30;;;;;;;1.73;0.20;;;4.70;99.90;;;;;;5092694;28;20204;-64
2021/01/06 12:56:05;;;;;;;1.80;0.30;;;4.70;99.90;;;;;;5091989;28;20179;-64
2021/01/06 12:58:43;;;;;;;1.70;0.20;;;4.80;99.90;;;;;;5091621;28;20180;-63
2021/01/06 13:01:30;;;;;;;1.70;0.20;;;4.80;99.90;;;;;;5094434;28;20180;-64
2021/01/06 13:03:55;;;;;;;1.70;0.20;;;4.90;99.90;;;;;;5094377;28;20206;-64
2021/01/06 13:06:48;;;;;;;1.73;0.20;;;4.80;99.90;;;;;;5088073;28;20188;-63
2021/01/06 13:09:32;;;;;;;6.97;3.60;;;4.80;99.90;;;;;;5092975;28;20215;-63
2021/01/06 13:12:06;;;;;;;1.73;0.20;;;4.70;99.90;;;;;;5094246;28;20187;-64
2021/01/06 13:14:42;;;;;;;1.70;0.20;;;4.70;99.90;;;;;;5085718;28;20212;-63
2021/01/06 13:17:14;;;;;;;1.70;0.20;;;4.80;99.90;;;;;;5093441;28;20204;-64
2021/01/06 13:20:06;;;;;;;1.90;0.70;;;4.80;99.90;;;;;;5086280;28;20199;-63
2021/01/06 13:22:41;;;;;;;1.70;0.20;;;4.90;99.90;;;;;;5088254;28;20184;-63
2021/01/06 13:25:25;;;;;;;1.80;0.20;;;4.80;99.90;;;;;;5093445;28;20222;-63
2021/01/06 13:27:50;;;;;;;2.38;0.65;;;4.80;99.90;;;;;;5092490;28;20206;-63
2021/01/06 13:30:34;;;;;;;1.70;0.20;;;4.80;99.90;;;;;;5090442;28;20184;-63
2021/01/06 13:33:20;;;;;;;2.88;1.60;;;4.80;99.90;;;;;;5090324;28;20245;-63
2021/01/06 13:35:57;;;;;;;1.73;0.20;;;4.70;99.90;;;;;;5092521;28;20527;-63
2021/01/06 13:38:36;;;;;;;1.73;0.20;;;4.70;99.90;;;;;;5092435;28;20186;-63
2021/01/06 13:41:18;;;;;;;1.70;0.20;;;4.70;99.90;;;;;;5094610;28;20523;-64
2021/01/06 13:44:19;;;;;;;1.70;0.20;;;4.70;99.90;;;;;;5088977;28;20204;-63
2021/01/06 13:46:49;;;;;;;1.70;0.20;;;4.80;99.90;;;;;;5086577;28;20689;-64